sensor_id;sensor_type;location;lat;lon;timestamp;noise_LAeq;noise_LA_min;noise_LA_max;noise_LA01;noise_LA95
4048;Laerm;2038;51.728;6.674;2022-07-29T00:01:37;40.32;34.69;48.12;;
4048;Laerm;2038;51.728;6.674;2022-07-29T00:04:04;39.09;34.31;43.09;;
4048;Laerm;2038;51.728;6.674;2022-07-29T00:06:30;43.68;35.04;60.72;;
4048;Laerm;2038;51.728;6.674;2022-07-29T00:08:56;44.51;34.31;61.05;;
4048;Laerm;2038;51.728;6.674;2022-07-29T00:11:22;39.63;35.04;44.03;;
4048;Laerm;2038;51.728;6.674;2022-07-29T00:13:48;38.99;34.31;43.68;;
4048;Laerm;2038;51.728;6.674;2022-07-29T00:16:15;39.70;34.69;43.94;;
4048;Laerm;2038;51.728;6.674;2022-07-29T00:18:41;46.60;34.69;62.26;;
4048;Laerm;2038;51.728;6.674;2022-07-29T00:21:07;40.81;35.04;47.70;;
4048;Laerm;2038;51.728;6.674;2022-07-29T00:23:33;39.40;35.04;44.07;;
4048;Laerm;2038;51.728;6.674;2022-07-29T00:26:00;40.07;34.69;56.95;;
4048;Laerm;2038;51.728;6.674;2022-07-29T00:28:26;40.66;34.31;46.69;;
4048;Laerm;2038;51.728;6.674;2022-07-29T00:30:52;40.17;33.90;44.80;;
4048;Laerm;2038;51.728;6.674;2022-07-29T00:33:18;50.38;33.44;67.43;;
4048;Laerm;2038;51.728;6.674;2022-07-29T00:35:45;47.26;33.90;64.14;;
4048;Laerm;2038;51.728;6.674;2022-07-29T00:38:17;40.29;33.90;57.68;;
4048;Laerm;2038;51.728;6.674;2022-07-29T00:40:45;39.41;33.90;46.25;;
4048;Laerm;2038;51.728;6.674;2022-07-29T00:43:13;39.17;33.44;49.72;;
4048;Laerm;2038;51.728;6.674;2022-07-29T00:45:41;38.86;31.68;44.69;;
4048;Laerm;2038;51.728;6.674;2022-07-29T00:48:07;40.87;36.45;48.88;;
4048;Laerm;2038;51.728;6.674;2022-07-29T00:50:36;50.91;35.36;67.42;;
4048;Laerm;2038;51.728;6.674;2022-07-29T00:53:06;40.31;34.31;44.03;;
4048;Laerm;2038;51.728;6.674;2022-07-29T00:55:33;39.17;33.44;45.60;;
4048;Laerm;2038;51.728;6.674;2022-07-29T00:58:01;50.69;34.31;72.91;;
4048;Laerm;2038;51.728;6.674;2022-07-29T01:00:29;39.34;32.93;41.96;;
4048;Laerm;2038;51.728;6.674;2022-07-29T01:02:55;40.08;35.94;45.63;;
4048;Laerm;2038;51.728;6.674;2022-07-29T01:05:26;39.84;35.94;43.54;;
4048;Laerm;2038;51.728;6.674;2022-07-29T01:07:54;51.70;35.66;68.79;;
4048;Laerm;2038;51.728;6.674;2022-07-29T01:10:23;39.48;34.69;42.76;;
4048;Laerm;2038;51.728;6.674;2022-07-29T01:12:52;38.83;34.69;41.22;;
4048;Laerm;2038;51.728;6.674;2022-07-29T01:15:21;41.05;35.94;54.85;;
4048;Laerm;2038;51.728;6.674;2022-07-29T01:18:18;38.79;31.68;42.53;;
4048;Laerm;2038;51.728;6.674;2022-07-29T01:21:38;38.86;33.90;43.19;;
4048;Laerm;2038;51.728;6.674;2022-07-29T01:30:25;39.19;32.35;42.47;;
4048;Laerm;2038;51.728;6.674;2022-07-29T01:33:00;38.53;32.93;43.04;;
4048;Laerm;2038;51.728;6.674;2022-07-29T01:35:39;44.05;32.58;61.99;;
4048;Laerm;2038;51.728;6.674;2022-07-29T01:38:20;40.31;34.69;46.82;;
4048;Laerm;2038;51.728;6.674;2022-07-29T01:41:06;51.12;32.35;67.73;;
4048;Laerm;2038;51.728;6.674;2022-07-29T01:43:56;38.06;31.68;41.46;;
4048;Laerm;2038;51.728;6.674;2022-07-29T01:46:40;38.56;32.35;41.89;;
4048;Laerm;2038;51.728;6.674;2022-07-29T01:49:15;50.16;31.68;67.19;;
4048;Laerm;2038;51.728;6.674;2022-07-29T01:51:55;40.04;32.93;46.43;;
4048;Laerm;2038;51.728;6.674;2022-07-29T01:54:58;38.24;32.93;41.61;;
4048;Laerm;2038;51.728;6.674;2022-07-29T01:57:33;47.65;33.44;65.96;;
4048;Laerm;2038;51.728;6.674;2022-07-29T02:00:04;47.36;34.31;63.45;;
4048;Laerm;2038;51.728;6.674;2022-07-29T02:02:35;46.40;32.93;67.66;;
4048;Laerm;2038;51.728;6.674;2022-07-29T02:05:05;39.27;34.31;46.45;;
4048;Laerm;2038;51.728;6.674;2022-07-29T02:07:36;38.60;34.69;41.46;;
4048;Laerm;2038;51.728;6.674;2022-07-29T02:10:06;54.09;35.36;69.94;;
4048;Laerm;2038;51.728;6.674;2022-07-29T02:12:36;45.48;35.04;63.07;;
4048;Laerm;2038;51.728;6.674;2022-07-29T02:15:06;49.59;34.31;67.20;;
4048;Laerm;2038;51.728;6.674;2022-07-29T02:17:41;38.66;33.44;41.68;;
4048;Laerm;2038;51.728;6.674;2022-07-29T02:20:09;46.48;34.69;64.51;;
4048;Laerm;2038;51.728;6.674;2022-07-29T02:22:38;38.69;34.31;41.96;;
4048;Laerm;2038;51.728;6.674;2022-07-29T02:25:08;43.99;34.31;61.47;;
4048;Laerm;2038;51.728;6.674;2022-07-29T02:27:37;47.23;35.04;65.43;;
4048;Laerm;2038;51.728;6.674;2022-07-29T02:30:06;39.14;34.69;46.71;;
4048;Laerm;2038;51.728;6.674;2022-07-29T02:32:37;45.92;34.69;63.67;;
4048;Laerm;2038;51.728;6.674;2022-07-29T02:35:08;39.36;34.69;45.27;;
4048;Laerm;2038;51.728;6.674;2022-07-29T02:37:36;38.66;33.90;43.04;;
4048;Laerm;2038;51.728;6.674;2022-07-29T02:40:04;38.53;34.31;41.38;;
4048;Laerm;2038;51.728;6.674;2022-07-29T02:42:34;47.39;34.31;64.07;;
4048;Laerm;2038;51.728;6.674;2022-07-29T02:45:02;47.32;35.66;63.39;;
4048;Laerm;2038;51.728;6.674;2022-07-29T02:47:36;39.53;35.36;47.77;;
4048;Laerm;2038;51.728;6.674;2022-07-29T02:50:30;43.82;38.67;57.73;;
4048;Laerm;2038;51.728;6.674;2022-07-29T02:53:13;41.27;37.32;56.02;;
4048;Laerm;2038;51.728;6.674;2022-07-29T02:55:55;45.91;35.04;61.61;;
4048;Laerm;2038;51.728;6.674;2022-07-29T02:58:28;40.27;36.69;49.32;;
4048;Laerm;2038;51.728;6.674;2022-07-29T03:01:13;47.40;36.91;63.80;;
4048;Laerm;2038;51.728;6.674;2022-07-29T03:03:43;40.42;36.20;44.11;;
4048;Laerm;2038;51.728;6.674;2022-07-29T03:06:15;40.03;35.66;45.36;;
4048;Laerm;2038;51.728;6.674;2022-07-29T03:08:44;47.86;36.91;63.60;;
4048;Laerm;2038;51.728;6.674;2022-07-29T03:11:12;54.18;37.70;70.96;;
4048;Laerm;2038;51.728;6.674;2022-07-29T03:13:40;52.55;39.21;67.81;;
4048;Laerm;2038;51.728;6.674;2022-07-29T03:16:09;51.86;38.05;68.08;;
4048;Laerm;2038;51.728;6.674;2022-07-29T03:18:37;41.49;37.70;53.16;;
4048;Laerm;2038;51.728;6.674;2022-07-29T03:21:04;54.25;38.52;70.02;;
4048;Laerm;2038;51.728;6.674;2022-07-29T03:23:30;50.02;38.95;64.28;;
4048;Laerm;2038;51.728;6.674;2022-07-29T03:25:57;48.50;37.12;63.21;;
4048;Laerm;2038;51.728;6.674;2022-07-29T03:28:23;51.77;38.67;66.82;;
4048;Laerm;2038;51.728;6.674;2022-07-29T03:30:50;54.30;38.05;70.39;;
4048;Laerm;2038;51.728;6.674;2022-07-29T03:33:17;54.23;39.46;71.34;;
4048;Laerm;2038;51.728;6.674;2022-07-29T03:35:43;49.40;40.33;66.24;;
4048;Laerm;2038;51.728;6.674;2022-07-29T03:38:09;52.31;39.92;68.27;;
4048;Laerm;2038;51.728;6.674;2022-07-29T03:40:56;55.05;41.46;67.22;;
4048;Laerm;2038;51.728;6.674;2022-07-29T03:43:30;47.62;40.33;63.16;;
4048;Laerm;2038;51.728;6.674;2022-07-29T03:46:01;56.39;39.08;75.00;;
4048;Laerm;2038;51.728;6.674;2022-07-29T03:48:33;48.18;38.52;64.40;;
4048;Laerm;2038;51.728;6.674;2022-07-29T03:51:01;53.59;38.81;65.67;;
4048;Laerm;2038;51.728;6.674;2022-07-29T03:53:28;56.98;38.81;74.53;;
4048;Laerm;2038;51.728;6.674;2022-07-29T03:55:58;51.09;37.32;68.85;;
4048;Laerm;2038;51.728;6.674;2022-07-29T03:58:27;53.15;38.52;69.70;;
4048;Laerm;2038;51.728;6.674;2022-07-29T04:00:56;53.71;37.32;68.36;;
4048;Laerm;2038;51.728;6.674;2022-07-29T04:03:23;47.26;37.32;64.49;;
4048;Laerm;2038;51.728;6.674;2022-07-29T04:06:07;46.39;36.20;64.53;;
4048;Laerm;2038;51.728;6.674;2022-07-29T04:08:34;54.27;39.81;75.13;;
4048;Laerm;2038;51.728;6.674;2022-07-29T04:11:02;50.41;39.21;67.26;;
4048;Laerm;2038;51.728;6.674;2022-07-29T04:13:29;49.56;39.81;65.91;;
4048;Laerm;2038;51.728;6.674;2022-07-29T04:15:55;46.50;39.21;59.75;;
4048;Laerm;2038;51.728;6.674;2022-07-29T04:18:21;49.69;39.46;62.44;;
4048;Laerm;2038;51.728;6.674;2022-07-29T04:20:48;56.50;40.62;69.48;;
4048;Laerm;2038;51.728;6.674;2022-07-29T04:23:15;57.38;38.52;73.92;;
4048;Laerm;2038;51.728;6.674;2022-07-29T04:25:42;53.32;39.81;66.08;;
4048;Laerm;2038;51.728;6.674;2022-07-29T04:28:09;53.95;40.13;66.34;;
4048;Laerm;2038;51.728;6.674;2022-07-29T04:30:37;49.79;38.95;63.76;;
4048;Laerm;2038;51.728;6.674;2022-07-29T04:33:05;51.68;39.08;64.84;;
4048;Laerm;2038;51.728;6.674;2022-07-29T04:35:36;54.43;38.95;68.08;;
4048;Laerm;2038;51.728;6.674;2022-07-29T04:38:05;55.73;38.95;67.60;;
4048;Laerm;2038;51.728;6.674;2022-07-29T04:40:32;49.04;40.03;66.83;;
4048;Laerm;2038;51.728;6.674;2022-07-29T04:43:02;55.14;39.21;70.97;;
4048;Laerm;2038;51.728;6.674;2022-07-29T04:45:28;57.38;40.03;75.67;;
4048;Laerm;2038;51.728;6.674;2022-07-29T04:47:55;57.94;39.08;76.15;;
4048;Laerm;2038;51.728;6.674;2022-07-29T04:50:22;49.98;39.46;64.23;;
4048;Laerm;2038;51.728;6.674;2022-07-29T04:52:48;56.67;39.70;69.39;;
4048;Laerm;2038;51.728;6.674;2022-07-29T04:55:15;59.26;38.95;71.50;;
4048;Laerm;2038;51.728;6.674;2022-07-29T04:57:41;49.63;39.81;66.38;;
4048;Laerm;2038;51.728;6.674;2022-07-29T05:00:08;52.17;40.33;69.73;;
4048;Laerm;2038;51.728;6.674;2022-07-29T05:02:35;49.01;39.08;61.75;;
4048;Laerm;2038;51.728;6.674;2022-07-29T05:05:01;50.44;39.58;63.98;;
4048;Laerm;2038;51.728;6.674;2022-07-29T05:07:27;51.01;39.46;67.74;;
4048;Laerm;2038;51.728;6.674;2022-07-29T05:09:54;52.36;40.13;65.20;;
4048;Laerm;2038;51.728;6.674;2022-07-29T05:12:24;55.24;41.06;70.01;;
4048;Laerm;2038;51.728;6.674;2022-07-29T05:14:50;56.53;41.82;71.06;;
4048;Laerm;2038;51.728;6.674;2022-07-29T05:17:16;52.09;40.33;71.29;;
4048;Laerm;2038;51.728;6.674;2022-07-29T05:19:42;56.85;41.30;67.55;;
4048;Laerm;2038;51.728;6.674;2022-07-29T05:22:09;51.69;41.06;67.06;;
4048;Laerm;2038;51.728;6.674;2022-07-29T05:24:35;54.42;42.35;67.89;;
4048;Laerm;2038;51.728;6.674;2022-07-29T05:27:01;52.59;42.47;68.18;;
4048;Laerm;2038;51.728;6.674;2022-07-29T05:29:27;59.74;44.87;76.29;;
4048;Laerm;2038;51.728;6.674;2022-07-29T05:31:53;56.02;45.86;69.36;;
4048;Laerm;2038;51.728;6.674;2022-07-29T05:34:20;54.95;43.90;67.79;;
4048;Laerm;2038;51.728;6.674;2022-07-29T05:36:46;61.17;44.15;73.20;;
4048;Laerm;2038;51.728;6.674;2022-07-29T05:39:13;55.90;43.04;67.79;;
4048;Laerm;2038;51.728;6.674;2022-07-29T05:41:40;58.08;43.72;70.86;;
4048;Laerm;2038;51.728;6.674;2022-07-29T05:44:06;57.76;42.71;71.75;;
4048;Laerm;2038;51.728;6.674;2022-07-29T05:46:32;56.96;43.58;68.30;;
4048;Laerm;2038;51.728;6.674;2022-07-29T05:48:58;58.43;40.23;74.25;;
4048;Laerm;2038;51.728;6.674;2022-07-29T05:51:25;58.95;41.96;70.20;;
4048;Laerm;2038;51.728;6.674;2022-07-29T05:53:51;52.25;41.22;68.90;;
4048;Laerm;2038;51.728;6.674;2022-07-29T05:56:17;57.34;41.46;71.98;;
4048;Laerm;2038;51.728;6.674;2022-07-29T05:58:43;57.99;41.38;71.56;;
4048;Laerm;2038;51.728;6.674;2022-07-29T06:01:10;59.67;40.43;73.88;;
4048;Laerm;2038;51.728;6.674;2022-07-29T06:03:36;55.94;40.53;71.57;;
4048;Laerm;2038;51.728;6.674;2022-07-29T06:06:03;55.39;40.53;70.59;;
4048;Laerm;2038;51.728;6.674;2022-07-29T06:08:31;55.57;40.33;70.70;;
4048;Laerm;2038;51.728;6.674;2022-07-29T06:11:00;54.50;39.81;71.33;;
4048;Laerm;2038;51.728;6.674;2022-07-29T06:13:27;54.78;39.46;66.92;;
4048;Laerm;2038;51.728;6.674;2022-07-29T06:15:53;52.20;39.34;67.26;;
4048;Laerm;2038;51.728;6.674;2022-07-29T06:18:19;57.55;40.88;76.49;;
4048;Laerm;2038;51.728;6.674;2022-07-29T06:20:46;54.46;40.13;70.38;;
4048;Laerm;2038;51.728;6.674;2022-07-29T06:23:13;54.24;42.82;70.75;;
4048;Laerm;2038;51.728;6.674;2022-07-29T06:25:40;57.21;43.24;73.49;;
4048;Laerm;2038;51.728;6.674;2022-07-29T06:28:07;54.93;42.82;68.92;;
4048;Laerm;2038;51.728;6.674;2022-07-29T06:30:33;55.51;41.22;69.03;;
4048;Laerm;2038;51.728;6.674;2022-07-29T06:32:59;50.23;41.06;63.96;;
4048;Laerm;2038;51.728;6.674;2022-07-29T06:35:28;59.11;42.65;72.97;;
4048;Laerm;2038;51.728;6.674;2022-07-29T06:37:54;54.73;42.47;67.66;;
4048;Laerm;2038;51.728;6.674;2022-07-29T06:40:20;58.81;42.76;71.54;;
4048;Laerm;2038;51.728;6.674;2022-07-29T06:43:05;55.23;40.43;70.60;;
4048;Laerm;2038;51.728;6.674;2022-07-29T06:45:34;55.87;41.03;71.76;;
4048;Laerm;2038;51.728;6.674;2022-07-29T06:48:01;56.38;40.98;67.65;;
4048;Laerm;2038;51.728;6.674;2022-07-29T06:50:27;53.19;40.80;65.48;;
4048;Laerm;2038;51.728;6.674;2022-07-29T06:52:53;55.91;39.92;68.64;;
4048;Laerm;2038;51.728;6.674;2022-07-29T06:55:19;53.34;40.71;67.67;;
4048;Laerm;2038;51.728;6.674;2022-07-29T06:57:46;52.64;40.43;65.82;;
4048;Laerm;2038;51.728;6.674;2022-07-29T07:00:13;55.39;40.98;67.38;;
4048;Laerm;2038;51.728;6.674;2022-07-29T07:02:39;53.73;41.30;66.10;;
4048;Laerm;2038;51.728;6.674;2022-07-29T07:05:06;52.29;40.80;65.44;;
4048;Laerm;2038;51.728;6.674;2022-07-29T07:07:33;53.71;41.96;66.62;;
4048;Laerm;2038;51.728;6.674;2022-07-29T07:09:59;52.71;41.46;63.50;;
4048;Laerm;2038;51.728;6.674;2022-07-29T07:12:25;49.67;40.89;65.06;;
4048;Laerm;2038;51.728;6.674;2022-07-29T07:14:51;54.32;40.53;65.56;;
4048;Laerm;2038;51.728;6.674;2022-07-29T07:17:18;52.58;39.46;68.79;;
4048;Laerm;2038;51.728;6.674;2022-07-29T07:19:44;55.47;41.75;65.82;;
4048;Laerm;2038;51.728;6.674;2022-07-29T07:22:11;55.07;41.46;67.52;;
4048;Laerm;2038;51.728;6.674;2022-07-29T07:24:37;59.66;40.80;75.77;;
4048;Laerm;2038;51.728;6.674;2022-07-29T07:27:03;57.21;41.22;72.52;;
4048;Laerm;2038;51.728;6.674;2022-07-29T07:29:29;55.96;39.70;70.19;;
4048;Laerm;2038;51.728;6.674;2022-07-29T07:31:57;53.69;38.81;68.11;;
4048;Laerm;2038;51.728;6.674;2022-07-29T07:34:23;50.28;40.13;63.44;;
4048;Laerm;2038;51.728;6.674;2022-07-29T07:36:49;54.53;41.19;66.01;;
4048;Laerm;2038;51.728;6.674;2022-07-29T07:39:16;54.47;40.71;66.29;;
4048;Laerm;2038;51.728;6.674;2022-07-29T07:41:42;50.93;39.89;63.85;;
4048;Laerm;2038;51.728;6.674;2022-07-29T07:44:08;55.08;41.14;69.51;;
4048;Laerm;2038;51.728;6.674;2022-07-29T07:46:34;53.35;41.61;62.93;;
4048;Laerm;2038;51.728;6.674;2022-07-29T07:49:00;53.86;41.46;66.02;;
4048;Laerm;2038;51.728;6.674;2022-07-29T07:51:27;54.23;38.95;64.39;;
4048;Laerm;2038;51.728;6.674;2022-07-29T07:53:53;58.58;39.81;76.45;;
4048;Laerm;2038;51.728;6.674;2022-07-29T07:56:19;48.82;38.21;60.71;;
4048;Laerm;2038;51.728;6.674;2022-07-29T07:58:46;50.67;38.21;64.44;;
4048;Laerm;2038;51.728;6.674;2022-07-29T08:01:12;59.33;39.58;74.84;;
4048;Laerm;2038;51.728;6.674;2022-07-29T08:03:38;53.94;38.67;69.82;;
4048;Laerm;2038;51.728;6.674;2022-07-29T08:06:05;53.28;38.81;63.87;;
4048;Laerm;2038;51.728;6.674;2022-07-29T08:08:32;52.34;41.30;63.47;;
4048;Laerm;2038;51.728;6.674;2022-07-29T08:10:58;54.45;40.03;66.36;;
4048;Laerm;2038;51.728;6.674;2022-07-29T08:13:26;54.33;39.46;70.22;;
4048;Laerm;2038;51.728;6.674;2022-07-29T08:15:58;56.35;40.71;66.96;;
4048;Laerm;2038;51.728;6.674;2022-07-29T08:18:30;56.71;41.75;69.13;;
4048;Laerm;2038;51.728;6.674;2022-07-29T08:20:57;53.78;42.53;68.94;;
4048;Laerm;2038;51.728;6.674;2022-07-29T08:23:24;58.62;41.89;70.48;;
4048;Laerm;2038;51.728;6.674;2022-07-29T08:25:52;51.88;41.06;66.52;;
4048;Laerm;2038;51.728;6.674;2022-07-29T08:28:19;56.33;46.05;69.09;;
4048;Laerm;2038;51.728;6.674;2022-07-29T08:30:45;60.74;45.01;75.30;;
4048;Laerm;2038;51.728;6.674;2022-07-29T08:33:11;52.52;42.98;66.62;;
4048;Laerm;2038;51.728;6.674;2022-07-29T08:35:39;57.68;42.41;73.03;;
4048;Laerm;2038;51.728;6.674;2022-07-29T08:38:06;59.36;42.65;70.86;;
4048;Laerm;2038;51.728;6.674;2022-07-29T08:40:32;57.80;40.88;72.31;;
4048;Laerm;2038;51.728;6.674;2022-07-29T08:43:04;51.45;41.82;64.79;;
4048;Laerm;2038;51.728;6.674;2022-07-29T08:45:41;61.43;43.99;74.48;;
4048;Laerm;2038;51.728;6.674;2022-07-29T08:48:08;56.50;43.14;72.66;;
4048;Laerm;2038;51.728;6.674;2022-07-29T08:50:37;54.01;41.22;67.72;;
4048;Laerm;2038;51.728;6.674;2022-07-29T08:53:05;54.93;41.82;66.95;;
4048;Laerm;2038;51.728;6.674;2022-07-29T08:55:33;54.91;39.11;69.93;;
4048;Laerm;2038;51.728;6.674;2022-07-29T08:58:00;59.04;40.53;70.98;;
4048;Laerm;2038;51.728;6.674;2022-07-29T09:00:28;57.89;41.06;75.27;;
4048;Laerm;2038;51.728;6.674;2022-07-29T09:02:58;54.59;40.33;67.43;;
4048;Laerm;2038;51.728;6.674;2022-07-29T09:05:26;55.55;41.14;67.38;;
4048;Laerm;2038;51.728;6.674;2022-07-29T09:07:54;56.31;39.81;69.66;;
4048;Laerm;2038;51.728;6.674;2022-07-29T09:10:21;53.48;41.46;66.71;;
4048;Laerm;2038;51.728;6.674;2022-07-29T09:12:48;58.52;41.06;74.16;;
4048;Laerm;2038;51.728;6.674;2022-07-29T09:15:14;60.94;43.14;73.63;;
4048;Laerm;2038;51.728;6.674;2022-07-29T09:17:47;54.68;41.75;65.55;;
4048;Laerm;2038;51.728;6.674;2022-07-29T09:20:20;58.78;42.41;72.28;;
4048;Laerm;2038;51.728;6.674;2022-07-29T09:22:49;55.83;41.89;67.89;;
4048;Laerm;2038;51.728;6.674;2022-07-29T09:25:40;54.32;41.61;66.44;;
4048;Laerm;2038;51.728;6.674;2022-07-29T09:28:15;55.47;41.75;66.62;;
4048;Laerm;2038;51.728;6.674;2022-07-29T09:30:57;50.49;41.06;62.57;;
4048;Laerm;2038;51.728;6.674;2022-07-29T09:33:34;60.07;41.82;77.04;;
4048;Laerm;2038;51.728;6.674;2022-07-29T09:36:07;59.54;41.30;76.99;;
4048;Laerm;2038;51.728;6.674;2022-07-29T09:38:35;55.19;42.03;68.74;;
4048;Laerm;2038;51.728;6.674;2022-07-29T09:41:04;53.68;40.80;67.66;;
4048;Laerm;2038;51.728;6.674;2022-07-29T09:43:31;56.22;41.22;69.39;;
4048;Laerm;2038;51.728;6.674;2022-07-29T09:46:13;55.18;40.62;68.85;;
4048;Laerm;2038;51.728;6.674;2022-07-29T09:48:40;54.65;41.68;66.08;;
4048;Laerm;2038;51.728;6.674;2022-07-29T09:51:18;54.93;40.80;68.16;;
4048;Laerm;2038;51.728;6.674;2022-07-29T09:53:45;54.04;40.33;66.62;;
4048;Laerm;2038;51.728;6.674;2022-07-29T09:56:11;53.71;41.06;65.71;;
4048;Laerm;2038;51.728;6.674;2022-07-29T09:58:37;56.24;41.94;68.34;;
4048;Laerm;2038;51.728;6.674;2022-07-29T10:01:03;53.91;41.61;66.65;;
4048;Laerm;2038;51.728;6.674;2022-07-29T10:03:29;54.46;40.36;65.10;;
4048;Laerm;2038;51.728;6.674;2022-07-29T10:06:10;54.29;42.16;68.32;;
4048;Laerm;2038;51.728;6.674;2022-07-29T10:08:37;54.44;43.54;66.06;;
4048;Laerm;2038;51.728;6.674;2022-07-29T10:11:17;52.21;41.61;64.85;;
4048;Laerm;2038;51.728;6.674;2022-07-29T10:13:47;58.42;40.13;73.28;;
4048;Laerm;2038;51.728;6.674;2022-07-29T10:16:15;56.94;41.30;70.39;;
4048;Laerm;2038;51.728;6.674;2022-07-29T10:18:44;50.77;38.52;63.21;;
4048;Laerm;2038;51.728;6.674;2022-07-29T10:21:10;56.35;39.81;73.39;;
4048;Laerm;2038;51.728;6.674;2022-07-29T10:23:38;54.07;40.89;68.12;;
4048;Laerm;2038;51.728;6.674;2022-07-29T10:26:04;55.13;40.23;65.79;;
4048;Laerm;2038;51.728;6.674;2022-07-29T10:28:31;55.74;40.43;69.77;;
4048;Laerm;2038;51.728;6.674;2022-07-29T10:31:06;58.53;39.34;74.09;;
4048;Laerm;2038;51.728;6.674;2022-07-29T10:37:01;53.72;39.81;64.76;;
4048;Laerm;2038;51.728;6.674;2022-07-29T10:42:55;52.52;36.69;65.71;;
4048;Laerm;2038;51.728;6.674;2022-07-29T10:45:28;53.01;38.37;63.99;;
4048;Laerm;2038;51.728;6.674;2022-07-29T10:48:05;52.18;37.88;63.67;;
4048;Laerm;2038;51.728;6.674;2022-07-29T10:51:02;49.80;38.67;62.33;;
4048;Laerm;2038;51.728;6.674;2022-07-29T10:53:52;50.37;38.37;65.00;;
4048;Laerm;2038;51.728;6.674;2022-07-29T10:56:31;58.54;39.34;79.74;;
4048;Laerm;2038;51.728;6.674;2022-07-29T11:01:52;53.62;36.91;66.96;;
4048;Laerm;2038;51.728;6.674;2022-07-29T11:07:11;53.98;38.81;68.44;;
4048;Laerm;2038;51.728;6.674;2022-07-29T11:09:38;54.31;39.81;67.31;;
4048;Laerm;2038;51.728;6.674;2022-07-29T11:12:45;57.29;38.05;77.02;;
4048;Laerm;2038;51.728;6.674;2022-07-29T11:15:16;52.03;39.92;61.99;;
4048;Laerm;2038;51.728;6.674;2022-07-29T11:20:40;55.78;37.52;70.31;;
4048;Laerm;2038;51.728;6.674;2022-07-29T11:23:30;50.95;37.70;66.53;;
4048;Laerm;2038;51.728;6.674;2022-07-29T11:26:16;52.71;38.81;65.91;;
4048;Laerm;2038;51.728;6.674;2022-07-29T11:29:20;52.30;36.91;66.79;;
4048;Laerm;2038;51.728;6.674;2022-07-29T11:31:52;53.58;38.21;66.59;;
4048;Laerm;2038;51.728;6.674;2022-07-29T11:34:32;54.68;38.52;70.75;;
4048;Laerm;2038;51.728;6.674;2022-07-29T11:45:07;53.47;40.36;64.68;;
4048;Laerm;2038;51.728;6.674;2022-07-29T11:47:51;59.42;40.03;76.75;;
4048;Laerm;2038;51.728;6.674;2022-07-29T11:50:35;52.52;37.88;68.29;;
4048;Laerm;2038;51.728;6.674;2022-07-29T11:53:11;54.64;38.21;67.97;;
4048;Laerm;2038;51.728;6.674;2022-07-29T11:55:39;50.80;37.32;63.90;;
4048;Laerm;2038;51.728;6.674;2022-07-29T11:58:06;53.94;37.88;66.83;;
4048;Laerm;2038;51.728;6.674;2022-07-29T12:00:36;56.17;37.12;73.84;;
4048;Laerm;2038;51.728;6.674;2022-07-29T12:03:09;50.41;37.70;66.05;;
4048;Laerm;2038;51.728;6.674;2022-07-29T12:05:40;56.09;38.95;72.84;;
4048;Laerm;2038;51.728;6.674;2022-07-29T12:08:20;53.52;38.21;69.14;;
4048;Laerm;2038;51.728;6.674;2022-07-29T12:10:51;55.56;38.67;68.17;;
4048;Laerm;2038;51.728;6.674;2022-07-29T12:13:20;62.02;37.70;78.13;;
4048;Laerm;2038;51.728;6.674;2022-07-29T12:15:57;57.91;40.89;72.82;;
4048;Laerm;2038;51.728;6.674;2022-07-29T12:18:24;63.41;40.62;78.62;;
4048;Laerm;2038;51.728;6.674;2022-07-29T12:20:59;53.37;40.23;72.02;;
4048;Laerm;2038;51.728;6.674;2022-07-29T12:23:25;54.70;38.21;68.92;;
4048;Laerm;2038;51.728;6.674;2022-07-29T12:25:52;57.53;38.05;72.22;;
4048;Laerm;2038;51.728;6.674;2022-07-29T12:28:18;54.23;38.52;66.90;;
4048;Laerm;2038;51.728;6.674;2022-07-29T12:30:48;55.38;38.37;70.16;;
4048;Laerm;2038;51.728;6.674;2022-07-29T12:33:23;58.03;39.46;71.34;;
4048;Laerm;2038;51.728;6.674;2022-07-29T12:35:54;52.09;39.08;62.72;;
4048;Laerm;2038;51.728;6.674;2022-07-29T12:38:22;59.43;39.70;76.20;;
4048;Laerm;2038;51.728;6.674;2022-07-29T12:40:51;57.47;39.46;71.86;;
4048;Laerm;2038;51.728;6.674;2022-07-29T12:43:21;54.49;40.03;65.48;;
4048;Laerm;2038;51.728;6.674;2022-07-29T12:45:51;56.36;39.58;68.87;;
4048;Laerm;2038;51.728;6.674;2022-07-29T12:48:39;55.96;38.52;68.46;;
4048;Laerm;2038;51.728;6.674;2022-07-29T12:51:08;52.57;39.46;65.07;;
4048;Laerm;2038;51.728;6.674;2022-07-29T12:53:36;53.02;39.70;65.03;;
4048;Laerm;2038;51.728;6.674;2022-07-29T12:56:04;56.31;39.46;69.37;;
4048;Laerm;2038;51.728;6.674;2022-07-29T12:58:39;52.70;37.88;63.71;;
4048;Laerm;2038;51.728;6.674;2022-07-29T13:01:13;53.59;37.12;70.05;;
4048;Laerm;2038;51.728;6.674;2022-07-29T13:03:56;55.57;38.21;68.73;;
4048;Laerm;2038;51.728;6.674;2022-07-29T13:06:44;55.23;37.52;67.63;;
4048;Laerm;2038;51.728;6.674;2022-07-29T13:09:19;55.48;39.58;67.34;;
4048;Laerm;2038;51.728;6.674;2022-07-29T13:11:53;51.90;39.81;63.45;;
4048;Laerm;2038;51.728;6.674;2022-07-29T13:14:35;53.60;37.88;67.15;;
4048;Laerm;2038;51.728;6.674;2022-07-29T13:17:20;56.49;38.67;80.77;;
4048;Laerm;2038;51.728;6.674;2022-07-29T13:20:07;63.93;37.88;93.03;;
4048;Laerm;2038;51.728;6.674;2022-07-29T13:22:39;53.94;38.21;68.29;;
4048;Laerm;2038;51.728;6.674;2022-07-29T13:25:06;51.83;38.05;63.57;;
4048;Laerm;2038;51.728;6.674;2022-07-29T13:27:35;50.47;37.70;64.36;;
4048;Laerm;2038;51.728;6.674;2022-07-29T13:30:06;55.75;38.05;71.24;;
4048;Laerm;2038;51.728;6.674;2022-07-29T13:32:34;53.51;39.08;64.90;;
4048;Laerm;2038;51.728;6.674;2022-07-29T13:35:05;50.78;37.88;62.70;;
4048;Laerm;2038;51.728;6.674;2022-07-29T13:37:33;50.99;35.94;65.89;;
4048;Laerm;2038;51.728;6.674;2022-07-29T13:40:02;50.93;36.45;65.22;;
4048;Laerm;2038;51.728;6.674;2022-07-29T13:42:29;55.60;37.88;67.74;;
4048;Laerm;2038;51.728;6.674;2022-07-29T13:44:55;56.67;39.34;69.36;;
4048;Laerm;2038;51.728;6.674;2022-07-29T13:47:22;60.15;38.37;75.31;;
4048;Laerm;2038;51.728;6.674;2022-07-29T13:49:49;52.59;38.95;63.93;;
4048;Laerm;2038;51.728;6.674;2022-07-29T13:52:16;51.00;38.52;64.95;;
4048;Laerm;2038;51.728;6.674;2022-07-29T13:54:43;56.67;39.08;68.78;;
4048;Laerm;2038;51.728;6.674;2022-07-29T13:57:11;59.23;38.05;78.48;;
4048;Laerm;2038;51.728;6.674;2022-07-29T13:59:41;56.14;39.08;69.17;;
4048;Laerm;2038;51.728;6.674;2022-07-29T14:02:11;49.94;37.12;63.85;;
4048;Laerm;2038;51.728;6.674;2022-07-29T14:04:38;52.90;37.12;64.86;;
4048;Laerm;2038;51.728;6.674;2022-07-29T14:07:06;58.94;38.81;76.03;;
4048;Laerm;2038;51.728;6.674;2022-07-29T14:09:33;51.12;38.05;62.40;;
4048;Laerm;2038;51.728;6.674;2022-07-29T14:11:59;49.89;38.32;62.73;;
4048;Laerm;2038;51.728;6.674;2022-07-29T14:14:26;53.80;39.46;66.16;;
4048;Laerm;2038;51.728;6.674;2022-07-29T14:16:52;50.91;37.88;62.82;;
4048;Laerm;2038;51.728;6.674;2022-07-29T14:19:18;55.83;37.70;72.17;;
4048;Laerm;2038;51.728;6.674;2022-07-29T14:21:44;54.00;39.46;65.33;;
4048;Laerm;2038;51.728;6.674;2022-07-29T14:24:11;51.32;38.37;67.43;;
4048;Laerm;2038;51.728;6.674;2022-07-29T14:26:37;54.79;38.95;68.88;;
4048;Laerm;2038;51.728;6.674;2022-07-29T14:29:04;54.03;39.58;66.94;;
4048;Laerm;2038;51.728;6.674;2022-07-29T14:31:30;56.56;41.46;66.88;;
4048;Laerm;2038;51.728;6.674;2022-07-29T14:33:56;54.03;38.67;65.32;;
4048;Laerm;2038;51.728;6.674;2022-07-29T14:36:22;51.50;37.52;65.24;;
4048;Laerm;2038;51.728;6.674;2022-07-29T14:38:49;54.79;37.32;68.30;;
4048;Laerm;2038;51.728;6.674;2022-07-29T14:41:15;55.87;38.52;69.40;;
4048;Laerm;2038;51.728;6.674;2022-07-29T14:43:42;50.09;37.88;62.00;;
4048;Laerm;2038;51.728;6.674;2022-07-29T14:46:08;54.64;39.92;72.45;;
4048;Laerm;2038;51.728;6.674;2022-07-29T14:48:34;54.88;38.67;66.40;;
4048;Laerm;2038;51.728;6.674;2022-07-29T14:51:01;54.79;38.37;66.90;;
4048;Laerm;2038;51.728;6.674;2022-07-29T14:53:27;52.04;37.88;66.07;;
4048;Laerm;2038;51.728;6.674;2022-07-29T14:55:53;52.69;39.70;64.49;;